sensor_id;sensor_type;location;lat;lon;timestamp;P1;durP1;ratioP1;P2;durP2;ratioP2
3549;SDS011;45572;48.804;8.330;2023-07-29T00:00:20;2.67;;;0.90;;
3549;SDS011;45572;48.804;8.330;2023-07-29T00:02:48;0.90;;;0.77;;
3549;SDS011;45572;48.804;8.330;2023-07-29T00:05:16;2.00;;;0.97;;
3549;SDS011;45572;48.804;8.330;2023-07-29T00:07:44;2.13;;;0.80;;
3549;SDS011;45572;48.804;8.330;2023-07-29T00:10:11;1.73;;;1.07;;
3549;SDS011;45572;48.804;8.330;2023-07-29T00:12:40;5.33;;;1.00;;
3549;SDS011;45572;48.804;8.330;2023-07-29T00:15:08;2.40;;;0.90;;
3549;SDS011;45572;48.804;8.330;2023-07-29T00:17:36;6.67;;;1.20;;
3549;SDS011;45572;48.804;8.330;2023-07-29T00:20:05;1.53;;;0.97;;
3549;SDS011;45572;48.804;8.330;2023-07-29T00:22:34;2.43;;;0.80;;
3549;SDS011;45572;48.804;8.330;2023-07-29T00:25:02;3.10;;;1.30;;
3549;SDS011;45572;48.804;8.330;2023-07-29T00:27:30;9.93;;;1.03;;
3549;SDS011;45572;48.804;8.330;2023-07-29T00:29:59;1.70;;;0.73;;
3549;SDS011;45572;48.804;8.330;2023-07-29T00:32:29;3.20;;;0.97;;
3549;SDS011;45572;48.804;8.330;2023-07-29T00:34:57;2.97;;;1.17;;
3549;SDS011;45572;48.804;8.330;2023-07-29T00:37:27;2.63;;;0.97;;
3549;SDS011;45572;48.804;8.330;2023-07-29T00:39:55;1.50;;;0.93;;
3549;SDS011;45572;48.804;8.330;2023-07-29T00:42:23;2.50;;;1.40;;
3549;SDS011;45572;48.804;8.330;2023-07-29T00:44:51;2.87;;;0.87;;
3549;SDS011;45572;48.804;8.330;2023-07-29T00:47:20;4.60;;;0.83;;
3549;SDS011;45572;48.804;8.330;2023-07-29T00:49:49;2.27;;;0.93;;
3549;SDS011;45572;48.804;8.330;2023-07-29T00:52:18;1.50;;;0.90;;
3549;SDS011;45572;48.804;8.330;2023-07-29T00:54:46;1.80;;;0.90;;
3549;SDS011;45572;48.804;8.330;2023-07-29T00:57:13;2.60;;;0.93;;
3549;SDS011;45572;48.804;8.330;2023-07-29T00:59:43;2.40;;;1.00;;
3549;SDS011;45572;48.804;8.330;2023-07-29T01:02:11;6.73;;;1.43;;
3549;SDS011;45572;48.804;8.330;2023-07-29T01:04:41;1.20;;;0.80;;
3549;SDS011;45572;48.804;8.330;2023-07-29T01:07:11;3.53;;;0.90;;
3549;SDS011;45572;48.804;8.330;2023-07-29T01:09:50;2.03;;;1.00;;
3549;SDS011;45572;48.804;8.330;2023-07-29T01:12:24;0.90;;;0.70;;
3549;SDS011;45572;48.804;8.330;2023-07-29T01:14:59;2.40;;;1.23;;
3549;SDS011;45572;48.804;8.330;2023-07-29T01:17:33;4.43;;;1.00;;
3549;SDS011;45572;48.804;8.330;2023-07-29T01:20:07;4.13;;;1.03;;
3549;SDS011;45572;48.804;8.330;2023-07-29T01:22:36;1.77;;;0.80;;
3549;SDS011;45572;48.804;8.330;2023-07-29T01:25:07;2.80;;;1.10;;
3549;SDS011;45572;48.804;8.330;2023-07-29T01:27:35;1.13;;;0.80;;
3549;SDS011;45572;48.804;8.330;2023-07-29T01:30:03;1.93;;;1.00;;
3549;SDS011;45572;48.804;8.330;2023-07-29T01:32:34;1.80;;;0.90;;
3549;SDS011;45572;48.804;8.330;2023-07-29T01:35:10;1.57;;;1.17;;
3549;SDS011;45572;48.804;8.330;2023-07-29T01:37:46;1.27;;;0.87;;
3549;SDS011;45572;48.804;8.330;2023-07-29T01:40:19;3.13;;;1.23;;
3549;SDS011;45572;48.804;8.330;2023-07-29T01:42:49;1.57;;;1.00;;
3549;SDS011;45572;48.804;8.330;2023-07-29T01:45:18;5.80;;;1.37;;
3549;SDS011;45572;48.804;8.330;2023-07-29T01:47:46;1.20;;;0.77;;
3549;SDS011;45572;48.804;8.330;2023-07-29T01:50:14;2.67;;;1.43;;
3549;SDS011;45572;48.804;8.330;2023-07-29T01:52:42;1.57;;;0.80;;
3549;SDS011;45572;48.804;8.330;2023-07-29T01:55:09;1.77;;;1.17;;
3549;SDS011;45572;48.804;8.330;2023-07-29T01:57:38;1.10;;;0.90;;
3549;SDS011;45572;48.804;8.330;2023-07-29T02:00:06;2.90;;;0.70;;
3549;SDS011;45572;48.804;8.330;2023-07-29T02:02:43;1.13;;;0.73;;
3549;SDS011;45572;48.804;8.330;2023-07-29T02:05:11;1.30;;;0.80;;
3549;SDS011;45572;48.804;8.330;2023-07-29T02:07:39;2.10;;;1.20;;
3549;SDS011;45572;48.804;8.330;2023-07-29T02:10:07;1.10;;;0.70;;
3549;SDS011;45572;48.804;8.330;2023-07-29T02:12:35;4.27;;;0.90;;
3549;SDS011;45572;48.804;8.330;2023-07-29T02:15:04;3.10;;;1.00;;
3549;SDS011;45572;48.804;8.330;2023-07-29T02:17:33;1.40;;;0.70;;
3549;SDS011;45572;48.804;8.330;2023-07-29T02:20:01;1.87;;;0.83;;
3549;SDS011;45572;48.804;8.330;2023-07-29T02:22:29;3.30;;;0.80;;
3549;SDS011;45572;48.804;8.330;2023-07-29T02:24:57;1.47;;;0.80;;
3549;SDS011;45572;48.804;8.330;2023-07-29T02:27:25;2.40;;;1.27;;
3549;SDS011;45572;48.804;8.330;2023-07-29T02:29:54;1.50;;;1.10;;
3549;SDS011;45572;48.804;8.330;2023-07-29T02:32:23;1.40;;;0.83;;
3549;SDS011;45572;48.804;8.330;2023-07-29T02:34:51;5.63;;;0.93;;
3549;SDS011;45572;48.804;8.330;2023-07-29T02:37:19;1.93;;;1.03;;
3549;SDS011;45572;48.804;8.330;2023-07-29T02:39:47;1.30;;;0.80;;
3549;SDS011;45572;48.804;8.330;2023-07-29T02:42:15;1.40;;;0.67;;
3549;SDS011;45572;48.804;8.330;2023-07-29T02:44:42;4.60;;;1.47;;
3549;SDS011;45572;48.804;8.330;2023-07-29T02:47:10;2.33;;;1.10;;
3549;SDS011;45572;48.804;8.330;2023-07-29T02:49:39;3.23;;;1.07;;
3549;SDS011;45572;48.804;8.330;2023-07-29T02:52:07;1.23;;;0.60;;
3549;SDS011;45572;48.804;8.330;2023-07-29T02:54:35;2.40;;;0.87;;
3549;SDS011;45572;48.804;8.330;2023-07-29T02:57:03;1.40;;;0.90;;
3549;SDS011;45572;48.804;8.330;2023-07-29T02:59:31;1.30;;;0.87;;
3549;SDS011;45572;48.804;8.330;2023-07-29T03:01:59;1.40;;;1.03;;
3549;SDS011;45572;48.804;8.330;2023-07-29T03:04:27;1.60;;;0.80;;
3549;SDS011;45572;48.804;8.330;2023-07-29T03:06:57;6.53;;;1.30;;
3549;SDS011;45572;48.804;8.330;2023-07-29T03:09:25;1.30;;;0.90;;
3549;SDS011;45572;48.804;8.330;2023-07-29T03:11:53;1.30;;;0.80;;
3549;SDS011;45572;48.804;8.330;2023-07-29T03:14:22;5.10;;;0.93;;
3549;SDS011;45572;48.804;8.330;2023-07-29T03:16:50;10.60;;;1.27;;
3549;SDS011;45572;48.804;8.330;2023-07-29T03:19:18;2.00;;;1.53;;
3549;SDS011;45572;48.804;8.330;2023-07-29T03:21:47;1.90;;;0.87;;
3549;SDS011;45572;48.804;8.330;2023-07-29T03:24:16;3.50;;;1.10;;
3549;SDS011;45572;48.804;8.330;2023-07-29T03:26:44;5.20;;;1.00;;
3549;SDS011;45572;48.804;8.330;2023-07-29T03:29:12;2.50;;;1.00;;
3549;SDS011;45572;48.804;8.330;2023-07-29T03:31:40;4.23;;;1.33;;
3549;SDS011;45572;48.804;8.330;2023-07-29T03:34:08;3.20;;;1.10;;
3549;SDS011;45572;48.804;8.330;2023-07-29T03:36:38;5.77;;;2.70;;
3549;SDS011;45572;48.804;8.330;2023-07-29T03:39:05;2.37;;;1.20;;
3549;SDS011;45572;48.804;8.330;2023-07-29T03:41:35;2.90;;;1.50;;
3549;SDS011;45572;48.804;8.330;2023-07-29T03:44:02;2.10;;;1.30;;
3549;SDS011;45572;48.804;8.330;2023-07-29T03:46:31;1.73;;;1.00;;
3549;SDS011;45572;48.804;8.330;2023-07-29T03:48:59;3.93;;;1.10;;
3549;SDS011;45572;48.804;8.330;2023-07-29T03:51:27;2.57;;;1.60;;
3549;SDS011;45572;48.804;8.330;2023-07-29T03:53:54;3.63;;;1.30;;
3549;SDS011;45572;48.804;8.330;2023-07-29T03:56:22;4.33;;;1.90;;
3549;SDS011;45572;48.804;8.330;2023-07-29T03:58:51;2.17;;;1.60;;
3549;SDS011;45572;48.804;8.330;2023-07-29T04:01:20;4.67;;;1.67;;
3549;SDS011;45572;48.804;8.330;2023-07-29T04:03:47;3.63;;;1.77;;
3549;SDS011;45572;48.804;8.330;2023-07-29T04:06:17;3.60;;;1.27;;
3549;SDS011;45572;48.804;8.330;2023-07-29T04:08:45;2.20;;;1.17;;
3549;SDS011;45572;48.804;8.330;2023-07-29T04:11:13;5.80;;;1.30;;
3549;SDS011;45572;48.804;8.330;2023-07-29T04:13:41;2.47;;;1.77;;
3549;SDS011;45572;48.804;8.330;2023-07-29T04:16:10;1.80;;;1.13;;
3549;SDS011;45572;48.804;8.330;2023-07-29T04:18:38;2.00;;;1.13;;
3549;SDS011;45572;48.804;8.330;2023-07-29T04:21:06;1.90;;;1.70;;
3549;SDS011;45572;48.804;8.330;2023-07-29T04:23:33;3.97;;;1.67;;
3549;SDS011;45572;48.804;8.330;2023-07-29T04:26:01;2.97;;;1.50;;
3549;SDS011;45572;48.804;8.330;2023-07-29T04:28:29;3.17;;;1.67;;
3549;SDS011;45572;48.804;8.330;2023-07-29T04:30:57;4.17;;;1.40;;
3549;SDS011;45572;48.804;8.330;2023-07-29T04:33:28;3.37;;;1.50;;
3549;SDS011;45572;48.804;8.330;2023-07-29T04:35:59;2.40;;;1.50;;
3549;SDS011;45572;48.804;8.330;2023-07-29T04:38:29;7.30;;;1.67;;
3549;SDS011;45572;48.804;8.330;2023-07-29T04:40:59;2.17;;;1.57;;
3549;SDS011;45572;48.804;8.330;2023-07-29T04:43:30;4.47;;;2.10;;
3549;SDS011;45572;48.804;8.330;2023-07-29T04:45:58;3.87;;;2.00;;
3549;SDS011;45572;48.804;8.330;2023-07-29T04:48:27;10.60;;;1.97;;
3549;SDS011;45572;48.804;8.330;2023-07-29T04:50:56;2.87;;;1.40;;
3549;SDS011;45572;48.804;8.330;2023-07-29T04:53:23;4.80;;;1.80;;
3549;SDS011;45572;48.804;8.330;2023-07-29T04:55:51;3.20;;;1.57;;
3549;SDS011;45572;48.804;8.330;2023-07-29T04:58:19;2.43;;;1.60;;
3549;SDS011;45572;48.804;8.330;2023-07-29T05:00:47;3.47;;;2.07;;
3549;SDS011;45572;48.804;8.330;2023-07-29T05:03:14;2.83;;;1.70;;
3549;SDS011;45572;48.804;8.330;2023-07-29T05:05:43;5.73;;;1.50;;
3549;SDS011;45572;48.804;8.330;2023-07-29T05:08:11;2.37;;;1.47;;
3549;SDS011;45572;48.804;8.330;2023-07-29T05:10:39;2.10;;;1.50;;
3549;SDS011;45572;48.804;8.330;2023-07-29T05:13:07;2.40;;;1.37;;
3549;SDS011;45572;48.804;8.330;2023-07-29T05:15:34;2.30;;;1.63;;
3549;SDS011;45572;48.804;8.330;2023-07-29T05:18:03;4.30;;;1.60;;
3549;SDS011;45572;48.804;8.330;2023-07-29T05:20:31;3.33;;;1.60;;
3549;SDS011;45572;48.804;8.330;2023-07-29T05:23:00;4.40;;;1.60;;
3549;SDS011;45572;48.804;8.330;2023-07-29T05:25:28;3.67;;;1.30;;
3549;SDS011;45572;48.804;8.330;2023-07-29T05:27:56;3.63;;;1.30;;
3549;SDS011;45572;48.804;8.330;2023-07-29T05:30:24;1.83;;;1.20;;
3549;SDS011;45572;48.804;8.330;2023-07-29T05:32:53;10.33;;;1.53;;
3549;SDS011;45572;48.804;8.330;2023-07-29T05:35:21;1.60;;;1.23;;
3549;SDS011;45572;48.804;8.330;2023-07-29T05:37:49;2.87;;;1.60;;
3549;SDS011;45572;48.804;8.330;2023-07-29T05:40:18;2.93;;;1.37;;
3549;SDS011;45572;48.804;8.330;2023-07-29T05:42:46;2.30;;;1.90;;
3549;SDS011;45572;48.804;8.330;2023-07-29T05:45:14;2.90;;;1.50;;
3549;SDS011;45572;48.804;8.330;2023-07-29T05:47:44;2.17;;;1.40;;
3549;SDS011;45572;48.804;8.330;2023-07-29T05:50:12;1.80;;;1.37;;
3549;SDS011;45572;48.804;8.330;2023-07-29T05:52:39;2.47;;;1.63;;
3549;SDS011;45572;48.804;8.330;2023-07-29T05:55:07;2.80;;;1.63;;
3549;SDS011;45572;48.804;8.330;2023-07-29T05:57:37;2.47;;;1.10;;
3549;SDS011;45572;48.804;8.330;2023-07-29T06:00:09;2.17;;;1.07;;
3549;SDS011;45572;48.804;8.330;2023-07-29T06:03:03;1.60;;;1.47;;
3549;SDS011;45572;48.804;8.330;2023-07-29T06:05:31;4.10;;;2.33;;
3549;SDS011;45572;48.804;8.330;2023-07-29T06:07:59;3.83;;;1.80;;
3549;SDS011;45572;48.804;8.330;2023-07-29T06:10:27;3.53;;;2.10;;
3549;SDS011;45572;48.804;8.330;2023-07-29T06:12:55;2.83;;;1.80;;
3549;SDS011;45572;48.804;8.330;2023-07-29T06:15:22;3.30;;;1.60;;
3549;SDS011;45572;48.804;8.330;2023-07-29T06:17:51;2.80;;;1.83;;
3549;SDS011;45572;48.804;8.330;2023-07-29T06:20:23;4.50;;;1.90;;
3549;SDS011;45572;48.804;8.330;2023-07-29T06:22:51;1.93;;;1.67;;
3549;SDS011;45572;48.804;8.330;2023-07-29T06:25:19;1.83;;;1.37;;
3549;SDS011;45572;48.804;8.330;2023-07-29T06:27:49;2.00;;;1.57;;
3549;SDS011;45572;48.804;8.330;2023-07-29T06:30:16;1.83;;;1.33;;
3549;SDS011;45572;48.804;8.330;2023-07-29T06:32:44;2.03;;;1.77;;
3549;SDS011;45572;48.804;8.330;2023-07-29T06:35:12;2.87;;;1.80;;
3549;SDS011;45572;48.804;8.330;2023-07-29T06:37:41;3.37;;;2.30;;
3549;SDS011;45572;48.804;8.330;2023-07-29T06:40:09;2.77;;;1.67;;
3549;SDS011;45572;48.804;8.330;2023-07-29T06:42:37;2.47;;;1.77;;
3549;SDS011;45572;48.804;8.330;2023-07-29T06:45:05;2.10;;;1.90;;
3549;SDS011;45572;48.804;8.330;2023-07-29T06:47:34;2.83;;;1.80;;
3549;SDS011;45572;48.804;8.330;2023-07-29T06:50:01;3.03;;;1.70;;
3549;SDS011;45572;48.804;8.330;2023-07-29T06:52:29;2.10;;;1.40;;
3549;SDS011;45572;48.804;8.330;2023-07-29T06:54:58;1.77;;;1.30;;
3549;SDS011;45572;48.804;8.330;2023-07-29T06:57:26;4.20;;;2.17;;
3549;SDS011;45572;48.804;8.330;2023-07-29T06:59:54;3.07;;;1.93;;
3549;SDS011;45572;48.804;8.330;2023-07-29T07:02:22;1.77;;;1.30;;
3549;SDS011;45572;48.804;8.330;2023-07-29T07:04:49;3.20;;;2.07;;
3549;SDS011;45572;48.804;8.330;2023-07-29T07:07:17;2.33;;;1.50;;
3549;SDS011;45572;48.804;8.330;2023-07-29T07:09:45;2.60;;;1.87;;
3549;SDS011;45572;48.804;8.330;2023-07-29T07:12:14;1.80;;;1.03;;
3549;SDS011;45572;48.804;8.330;2023-07-29T07:14:42;3.17;;;1.63;;
3549;SDS011;45572;48.804;8.330;2023-07-29T07:17:10;1.20;;;1.00;;
3549;SDS011;45572;48.804;8.330;2023-07-29T07:19:39;1.80;;;1.20;;
3549;SDS011;45572;48.804;8.330;2023-07-29T07:22:07;2.53;;;1.33;;
3549;SDS011;45572;48.804;8.330;2023-07-29T07:24:34;2.23;;;1.00;;
3549;SDS011;45572;48.804;8.330;2023-07-29T07:27:02;5.20;;;1.30;;
3549;SDS011;45572;48.804;8.330;2023-07-29T07:29:32;2.57;;;1.93;;
3549;SDS011;45572;48.804;8.330;2023-07-29T07:31:59;1.70;;;1.10;;
3549;SDS011;45572;48.804;8.330;2023-07-29T07:34:30;1.70;;;1.30;;
3549;SDS011;45572;48.804;8.330;2023-07-29T07:36:59;5.40;;;1.43;;
3549;SDS011;45572;48.804;8.330;2023-07-29T07:39:27;2.70;;;1.43;;
3549;SDS011;45572;48.804;8.330;2023-07-29T07:41:55;1.40;;;0.90;;
3549;SDS011;45572;48.804;8.330;2023-07-29T07:44:22;1.90;;;1.10;;
3549;SDS011;45572;48.804;8.330;2023-07-29T07:46:53;5.13;;;1.07;;
3549;SDS011;45572;48.804;8.330;2023-07-29T07:49:21;1.10;;;0.90;;
3549;SDS011;45572;48.804;8.330;2023-07-29T07:51:49;1.60;;;1.00;;
3549;SDS011;45572;48.804;8.330;2023-07-29T07:54:17;1.30;;;0.80;;
3549;SDS011;45572;48.804;8.330;2023-07-29T07:56:45;3.00;;;0.90;;
3549;SDS011;45572;48.804;8.330;2023-07-29T07:59:12;2.33;;;1.00;;
3549;SDS011;45572;48.804;8.330;2023-07-29T08:01:43;2.30;;;0.80;;
3549;SDS011;45572;48.804;8.330;2023-07-29T08:04:12;1.50;;;0.70;;
3549;SDS011;45572;48.804;8.330;2023-07-29T08:06:40;2.47;;;0.90;;
3549;SDS011;45572;48.804;8.330;2023-07-29T08:09:08;1.67;;;1.17;;
3549;SDS011;45572;48.804;8.330;2023-07-29T08:11:36;1.37;;;0.73;;
3549;SDS011;45572;48.804;8.330;2023-07-29T08:14:03;1.80;;;0.70;;
3549;SDS011;45572;48.804;8.330;2023-07-29T08:16:31;1.20;;;0.80;;
3549;SDS011;45572;48.804;8.330;2023-07-29T08:18:59;1.77;;;0.80;;
3549;SDS011;45572;48.804;8.330;2023-07-29T08:21:28;1.13;;;0.80;;
3549;SDS011;45572;48.804;8.330;2023-07-29T08:23:56;1.60;;;0.80;;
3549;SDS011;45572;48.804;8.330;2023-07-29T08:26:24;1.37;;;0.80;;
3549;SDS011;45572;48.804;8.330;2023-07-29T08:28:52;1.47;;;0.90;;
3549;SDS011;45572;48.804;8.330;2023-07-29T08:31:20;1.20;;;0.80;;
3549;SDS011;45572;48.804;8.330;2023-07-29T08:33:48;3.33;;;1.03;;
3549;SDS011;45572;48.804;8.330;2023-07-29T08:36:16;1.80;;;0.70;;
3549;SDS011;45572;48.804;8.330;2023-07-29T08:38:45;1.63;;;1.00;;
3549;SDS011;45572;48.804;8.330;2023-07-29T08:41:13;2.77;;;0.80;;
3549;SDS011;45572;48.804;8.330;2023-07-29T08:43:45;1.17;;;0.80;;
3549;SDS011;45572;48.804;8.330;2023-07-29T08:46:18;2.17;;;1.40;;
3549;SDS011;45572;48.804;8.330;2023-07-29T08:48:46;1.10;;;0.97;;
3549;SDS011;45572;48.804;8.330;2023-07-29T08:51:14;1.70;;;0.90;;
3549;SDS011;45572;48.804;8.330;2023-07-29T08:53:45;1.43;;;0.80;;
3549;SDS011;45572;48.804;8.330;2023-07-29T08:56:14;1.73;;;1.30;;
3549;SDS011;45572;48.804;8.330;2023-07-29T08:58:42;2.73;;;1.00;;
3549;SDS011;45572;48.804;8.330;2023-07-29T09:01:10;0.90;;;0.70;;
3549;SDS011;45572;48.804;8.330;2023-07-29T09:03:38;1.83;;;1.17;;
3549;SDS011;45572;48.804;8.330;2023-07-29T09:06:08;2.10;;;1.20;;
3549;SDS011;45572;48.804;8.330;2023-07-29T09:08:36;3.40;;;1.10;;
3549;SDS011;45572;48.804;8.330;2023-07-29T09:11:05;3.67;;;1.90;;
3549;SDS011;45572;48.804;8.330;2023-07-29T09:13:34;1.23;;;1.03;;
3549;SDS011;45572;48.804;8.330;2023-07-29T09:16:02;3.53;;;1.60;;
3549;SDS011;45572;48.804;8.330;2023-07-29T09:18:31;2.23;;;1.93;;
3549;SDS011;45572;48.804;8.330;2023-07-29T09:20:59;1.63;;;1.33;;
3549;SDS011;45572;48.804;8.330;2023-07-29T09:23:28;3.17;;;1.80;;
3549;SDS011;45572;48.804;8.330;2023-07-29T09:26:00;2.80;;;2.00;;
3549;SDS011;45572;48.804;8.330;2023-07-29T09:28:32;3.20;;;2.40;;
3549;SDS011;45572;48.804;8.330;2023-07-29T09:31:02;3.10;;;1.67;;
3549;SDS011;45572;48.804;8.330;2023-07-29T09:33:30;3.60;;;1.23;;
3549;SDS011;45572;48.804;8.330;2023-07-29T09:36:08;2.30;;;1.47;;
3549;SDS011;45572;48.804;8.330;2023-07-29T09:38:36;3.80;;;1.73;;
3549;SDS011;45572;48.804;8.330;2023-07-29T09:41:05;2.23;;;1.73;;
3549;SDS011;45572;48.804;8.330;2023-07-29T09:43:34;2.97;;;1.10;;
3549;SDS011;45572;48.804;8.330;2023-07-29T09:46:03;1.90;;;1.30;;
3549;SDS011;45572;48.804;8.330;2023-07-29T09:48:33;1.43;;;1.00;;
3549;SDS011;45572;48.804;8.330;2023-07-29T09:51:09;2.93;;;1.00;;
3549;SDS011;45572;48.804;8.330;2023-07-29T09:53:39;1.90;;;1.03;;
3549;SDS011;45572;48.804;8.330;2023-07-29T09:56:12;1.47;;;0.77;;
3549;SDS011;45572;48.804;8.330;2023-07-29T09:58:42;2.03;;;1.23;;
3549;SDS011;45572;48.804;8.330;2023-07-29T10:01:12;1.30;;;0.60;;
3549;SDS011;45572;48.804;8.330;2023-07-29T10:03:41;1.40;;;0.80;;
3549;SDS011;45572;48.804;8.330;2023-07-29T10:06:11;4.13;;;0.90;;
3549;SDS011;45572;48.804;8.330;2023-07-29T10:08:42;2.67;;;1.00;;
3549;SDS011;45572;48.804;8.330;2023-07-29T10:11:10;4.27;;;1.50;;
3549;SDS011;45572;48.804;8.330;2023-07-29T10:13:38;2.80;;;1.00;;
3549;SDS011;45572;48.804;8.330;2023-07-29T10:16:09;1.13;;;0.97;;
3549;SDS011;45572;48.804;8.330;2023-07-29T10:18:38;3.13;;;0.67;;
3549;SDS011;45572;48.804;8.330;2023-07-29T10:21:09;1.53;;;0.60;;
3549;SDS011;45572;48.804;8.330;2023-07-29T10:23:42;1.60;;;0.90;;
3549;SDS011;45572;48.804;8.330;2023-07-29T10:26:12;5.50;;;1.17;;
3549;SDS011;45572;48.804;8.330;2023-07-29T10:28:45;3.13;;;1.00;;
3549;SDS011;45572;48.804;8.330;2023-07-29T10:31:16;3.17;;;1.57;;
3549;SDS011;45572;48.804;8.330;2023-07-29T10:33:45;1.87;;;0.80;;
3549;SDS011;45572;48.804;8.330;2023-07-29T10:36:13;3.00;;;0.80;;
3549;SDS011;45572;48.804;8.330;2023-07-29T10:38:41;2.33;;;0.90;;
3549;SDS011;45572;48.804;8.330;2023-07-29T10:41:09;3.23;;;0.97;;
3549;SDS011;45572;48.804;8.330;2023-07-29T10:43:37;1.60;;;1.00;;
3549;SDS011;45572;48.804;8.330;2023-07-29T10:48:53;1.00;;;0.70;;
3549;SDS011;45572;48.804;8.330;2023-07-29T10:51:23;1.37;;;0.70;;
3549;SDS011;45572;48.804;8.330;2023-07-29T10:53:52;1.97;;;0.70;;
3549;SDS011;45572;48.804;8.330;2023-07-29T10:56:26;1.20;;;0.70;;
3549;SDS011;45572;48.804;8.330;2023-07-29T10:58:55;1.60;;;1.10;;
3549;SDS011;45572;48.804;8.330;2023-07-29T11:01:29;1.30;;;0.60;;
3549;SDS011;45572;48.804;8.330;2023-07-29T11:04:01;2.17;;;0.90;;
3549;SDS011;45572;48.804;8.330;2023-07-29T11:09:42;1.60;;;0.80;;
3549;SDS011;45572;48.804;8.330;2023-07-29T11:15:13;0.90;;;0.60;;
3549;SDS011;45572;48.804;8.330;2023-07-29T11:17:45;1.30;;;0.80;;
3549;SDS011;45572;48.804;8.330;2023-07-29T11:20:16;1.73;;;1.00;;
3549;SDS011;45572;48.804;8.330;2023-07-29T11:22:45;1.50;;;1.00;;
3549;SDS011;45572;48.804;8.330;2023-07-29T11:25:14;3.50;;;0.90;;
3549;SDS011;45572;48.804;8.330;2023-07-29T11:27:48;2.77;;;1.23;;
3549;SDS011;45572;48.804;8.330;2023-07-29T11:30:16;1.10;;;0.60;;
3549;SDS011;45572;48.804;8.330;2023-07-29T11:32:47;1.00;;;0.70;;
3549;SDS011;45572;48.804;8.330;2023-07-29T11:35:15;1.03;;;0.93;;
3549;SDS011;45572;48.804;8.330;2023-07-29T11:37:44;1.73;;;0.73;;
3549;SDS011;45572;48.804;8.330;2023-07-29T11:40:14;3.40;;;0.67;;
3549;SDS011;45572;48.804;8.330;2023-07-29T11:42:43;1.20;;;0.93;;
3549;SDS011;45572;48.804;8.330;2023-07-29T11:45:12;1.40;;;0.80;;
3549;SDS011;45572;48.804;8.330;2023-07-29T11:47:44;1.27;;;0.80;;
3549;SDS011;45572;48.804;8.330;2023-07-29T11:50:14;1.27;;;0.83;;
3549;SDS011;45572;48.804;8.330;2023-07-29T11:52:42;2.03;;;0.80;;
3549;SDS011;45572;48.804;8.330;2023-07-29T11:55:12;1.10;;;0.80;;
3549;SDS011;45572;48.804;8.330;2023-07-29T11:57:41;1.20;;;0.80;;
3549;SDS011;45572;48.804;8.330;2023-07-29T12:00:11;2.60;;;0.80;;
3549;SDS011;45572;48.804;8.330;2023-07-29T12:02:43;2.03;;;0.80;;
3549;SDS011;45572;48.804;8.330;2023-07-29T12:05:13;1.30;;;1.07;;
3549;SDS011;45572;48.804;8.330;2023-07-29T12:07:42;1.40;;;1.00;;
3549;SDS011;45572;48.804;8.330;2023-07-29T12:10:11;2.90;;;1.23;;
3549;SDS011;45572;48.804;8.330;2023-07-29T12:12:43;1.87;;;1.10;;
3549;SDS011;45572;48.804;8.330;2023-07-29T12:15:12;1.77;;;1.00;;
3549;SDS011;45572;48.804;8.330;2023-07-29T12:17:40;3.03;;;1.07;;
3549;SDS011;45572;48.804;8.330;2023-07-29T12:20:09;1.40;;;1.03;;
3549;SDS011;45572;48.804;8.330;2023-07-29T12:22:39;2.30;;;0.90;;
3549;SDS011;45572;48.804;8.330;2023-07-29T12:25:07;4.67;;;1.00;;
3549;SDS011;45572;48.804;8.330;2023-07-29T12:27:35;5.20;;;1.30;;
3549;SDS011;45572;48.804;8.330;2023-07-29T12:30:04;1.80;;;1.10;;
3549;SDS011;45572;48.804;8.330;2023-07-29T12:32:33;1.60;;;1.23;;
3549;SDS011;45572;48.804;8.330;2023-07-29T12:35:09;1.50;;;0.97;;
3549;SDS011;45572;48.804;8.330;2023-07-29T12:37:39;2.70;;;1.30;;
3549;SDS011;45572;48.804;8.330;2023-07-29T12:40:20;2.67;;;1.20;;
3549;SDS011;45572;48.804;8.330;2023-07-29T12:42:49;1.07;;;0.70;;
3549;SDS011;45572;48.804;8.330;2023-07-29T12:45:18;2.20;;;1.10;;
3549;SDS011;45572;48.804;8.330;2023-07-29T12:47:49;1.67;;;0.97;;
3549;SDS011;45572;48.804;8.330;2023-07-29T12:50:17;3.07;;;1.20;;
3549;SDS011;45572;48.804;8.330;2023-07-29T12:52:46;1.57;;;1.20;;
3549;SDS011;45572;48.804;8.330;2023-07-29T12:55:14;2.03;;;1.20;;
3549;SDS011;45572;48.804;8.330;2023-07-29T12:57:46;1.90;;;1.13;;
3549;SDS011;45572;48.804;8.330;2023-07-29T13:00:13;1.67;;;1.00;;
3549;SDS011;45572;48.804;8.330;2023-07-29T13:02:41;1.80;;;1.33;;
3549;SDS011;45572;48.804;8.330;2023-07-29T13:05:10;1.87;;;1.10;;
3549;SDS011;45572;48.804;8.330;2023-07-29T13:07:39;1.57;;;0.97;;
3549;SDS011;45572;48.804;8.330;2023-07-29T13:10:10;2.13;;;0.80;;
3549;SDS011;45572;48.804;8.330;2023-07-29T13:12:38;1.23;;;0.90;;
3549;SDS011;45572;48.804;8.330;2023-07-29T13:15:06;2.83;;;1.30;;
3549;SDS011;45572;48.804;8.330;2023-07-29T13:17:34;2.13;;;0.73;;
3549;SDS011;45572;48.804;8.330;2023-07-29T13:20:04;1.83;;;1.10;;
3549;SDS011;45572;48.804;8.330;2023-07-29T13:22:32;4.20;;;2.53;;
3549;SDS011;45572;48.804;8.330;2023-07-29T13:25:00;25.23;;;7.50;;
3549;SDS011;45572;48.804;8.330;2023-07-29T13:27:29;15.37;;;6.40;;
3549;SDS011;45572;48.804;8.330;2023-07-29T13:29:57;37.90;;;12.00;;
3549;SDS011;45572;48.804;8.330;2023-07-29T13:32:25;7.33;;;3.53;;
3549;SDS011;45572;48.804;8.330;2023-07-29T13:34:53;2.27;;;1.00;;
3549;SDS011;45572;48.804;8.330;2023-07-29T13:37:21;2.30;;;1.33;;
3549;SDS011;45572;48.804;8.330;2023-07-29T13:39:49;4.00;;;1.53;;
3549;SDS011;45572;48.804;8.330;2023-07-29T13:42:16;1.93;;;1.10;;
3549;SDS011;45572;48.804;8.330;2023-07-29T13:44:46;2.77;;;1.50;;
3549;SDS011;45572;48.804;8.330;2023-07-29T13:47:14;5.00;;;1.03;;
3549;SDS011;45572;48.804;8.330;2023-07-29T13:49:42;1.83;;;1.43;;
3549;SDS011;45572;48.804;8.330;2023-07-29T13:52:10;2.50;;;1.10;;
3549;SDS011;45572;48.804;8.330;2023-07-29T13:54:38;2.13;;;1.47;;
3549;SDS011;45572;48.804;8.330;2023-07-29T13:57:06;1.67;;;1.30;;
3549;SDS011;45572;48.804;8.330;2023-07-29T13:59:33;4.00;;;1.10;;
3549;SDS011;45572;48.804;8.330;2023-07-29T14:02:05;3.43;;;0.97;;
3549;SDS011;45572;48.804;8.330;2023-07-29T14:04:34;1.80;;;1.00;;
3549;SDS011;45572;48.804;8.330;2023-07-29T14:07:02;3.00;;;1.40;;
3549;SDS011;45572;48.804;8.330;2023-07-29T14:09:31;1.70;;;1.40;;
3549;SDS011;45572;48.804;8.330;2023-07-29T14:11:59;1.90;;;1.10;;
3549;SDS011;45572;48.804;8.330;2023-07-29T14:14:27;1.90;;;1.03;;
3549;SDS011;45572;48.804;8.330;2023-07-29T14:16:54;1.80;;;1.03;;
3549;SDS011;45572;48.804;8.330;2023-07-29T14:19:24;3.40;;;1.53;;
3549;SDS011;45572;48.804;8.330;2023-07-29T14:21:52;1.60;;;0.97;;
3549;SDS011;45572;48.804;8.330;2023-07-29T14:24:19;4.00;;;2.10;;
3549;SDS011;45572;48.804;8.330;2023-07-29T14:26:49;3.07;;;1.60;;
3549;SDS011;45572;48.804;8.330;2023-07-29T14:29:18;2.10;;;1.10;;
3549;SDS011;45572;48.804;8.330;2023-07-29T14:31:46;1.97;;;1.60;;
3549;SDS011;45572;48.804;8.330;2023-07-29T14:34:14;2.20;;;1.33;;
3549;SDS011;45572;48.804;8.330;2023-07-29T14:36:43;2.53;;;1.60;;
3549;SDS011;45572;48.804;8.330;2023-07-29T14:39:11;2.20;;;1.57;;
3549;SDS011;45572;48.804;8.330;2023-07-29T14:41:39;2.10;;;1.43;;
3549;SDS011;45572;48.804;8.330;2023-07-29T14:44:06;1.83;;;1.20;;
3549;SDS011;45572;48.804;8.330;2023-07-29T14:46:34;2.60;;;1.27;;
3549;SDS011;45572;48.804;8.330;2023-07-29T14:49:02;2.67;;;1.53;;
3549;SDS011;45572;48.804;8.330;2023-07-29T14:51:30;3.20;;;1.33;;
3549;SDS011;45572;48.804;8.330;2023-07-29T14:53:59;4.03;;;1.53;;
3549;SDS011;45572;48.804;8.330;2023-07-29T14:56:27;4.30;;;2.03;;
3549;SDS011;45572;48.804;8.330;2023-07-29T14:58:55;2.73;;;1.57;;
3549;SDS011;45572;48.804;8.330;2023-07-29T15:01:23;4.00;;;1.50;;
3549;SDS011;45572;48.804;8.330;2023-07-29T15:03:51;2.27;;;1.30;;
3549;SDS011;45572;48.804;8.330;2023-07-29T15:06:18;5.17;;;1.67;;
3549;SDS011;45572;48.804;8.330;2023-07-29T15:08:46;3.60;;;1.80;;
3549;SDS011;45572;48.804;8.330;2023-07-29T15:11:15;2.20;;;1.43;;
3549;SDS011;45572;48.804;8.330;2023-07-29T15:13:43;1.97;;;1.77;;
3549;SDS011;45572;48.804;8.330;2023-07-29T15:16:11;2.33;;;1.43;;
3549;SDS011;45572;48.804;8.330;2023-07-29T15:18:39;3.00;;;1.53;;